sensor_id;sensor_type;location;lat;lon;timestamp;temperature;humidity
31113;DHT22;17763;48.730;9.136;2023-05-19T00:02:01;11.20;91.70
31113;DHT22;17763;48.730;9.136;2023-05-19T00:04:30;11.20;91.60
31113;DHT22;17763;48.730;9.136;2023-05-19T00:06:58;11.20;92.50
31113;DHT22;17763;48.730;9.136;2023-05-19T00:09:24;11.10;92.60
31113;DHT22;17763;48.730;9.136;2023-05-19T00:11:50;11.10;92.80
31113;DHT22;17763;48.730;9.136;2023-05-19T00:14:16;11.00;92.80
31113;DHT22;17763;48.730;9.136;2023-05-19T00:16:45;11.00;93.20
31113;DHT22;17763;48.730;9.136;2023-05-19T00:19:11;11.00;93.00
31113;DHT22;17763;48.730;9.136;2023-05-19T00:21:37;11.00;93.30
31113;DHT22;17763;48.730;9.136;2023-05-19T00:24:03;11.00;93.30
31113;DHT22;17763;48.730;9.136;2023-05-19T00:26:32;10.90;93.40
31113;DHT22;17763;48.730;9.136;2023-05-19T00:28:58;10.80;93.90
31113;DHT22;17763;48.730;9.136;2023-05-19T00:31:24;10.80;94.30
31113;DHT22;17763;48.730;9.136;2023-05-19T00:33:49;10.80;94.40
31113;DHT22;17763;48.730;9.136;2023-05-19T00:36:16;10.80;94.50
31113;DHT22;17763;48.730;9.136;2023-05-19T00:38:42;10.70;94.90
31113;DHT22;17763;48.730;9.136;2023-05-19T00:41:08;10.70;95.40
31113;DHT22;17763;48.730;9.136;2023-05-19T00:43:33;10.70;94.90
31113;DHT22;17763;48.730;9.136;2023-05-19T00:46:02;10.80;95.20
31113;DHT22;17763;48.730;9.136;2023-05-19T00:48:27;10.60;95.30
31113;DHT22;17763;48.730;9.136;2023-05-19T00:50:55;10.60;95.50
31113;DHT22;17763;48.730;9.136;2023-05-19T00:53:29;10.50;96.00
31113;DHT22;17763;48.730;9.136;2023-05-19T00:55:55;10.50;96.20
31113;DHT22;17763;48.730;9.136;2023-05-19T00:58:21;10.40;96.50
31113;DHT22;17763;48.730;9.136;2023-05-19T01:00:48;10.30;96.80
31113;DHT22;17763;48.730;9.136;2023-05-19T01:03:15;10.30;97.00
31113;DHT22;17763;48.730;9.136;2023-05-19T01:05:44;10.30;97.40
31113;DHT22;17763;48.730;9.136;2023-05-19T01:08:11;10.30;97.70
31113;DHT22;17763;48.730;9.136;2023-05-19T01:10:36;10.30;98.00
31113;DHT22;17763;48.730;9.136;2023-05-19T01:13:03;10.30;98.50
31113;DHT22;17763;48.730;9.136;2023-05-19T01:15:34;10.20;98.60
31113;DHT22;17763;48.730;9.136;2023-05-19T01:18:13;10.20;98.90
31113;DHT22;17763;48.730;9.136;2023-05-19T01:20:44;10.20;99.00
31113;DHT22;17763;48.730;9.136;2023-05-19T01:26:34;10.20;99.80
31113;DHT22;17763;48.730;9.136;2023-05-19T01:31:40;10.10;99.90
31113;DHT22;17763;48.730;9.136;2023-05-19T01:34:07;10.10;99.90
31113;DHT22;17763;48.730;9.136;2023-05-19T01:36:36;10.10;99.90
31113;DHT22;17763;48.730;9.136;2023-05-19T01:39:05;10.10;99.90
31113;DHT22;17763;48.730;9.136;2023-05-19T01:41:31;10.00;99.90
31113;DHT22;17763;48.730;9.136;2023-05-19T01:43:58;10.00;99.90
31113;DHT22;17763;48.730;9.136;2023-05-19T01:46:24;10.00;99.90
31113;DHT22;17763;48.730;9.136;2023-05-19T01:48:53;10.00;99.90
31113;DHT22;17763;48.730;9.136;2023-05-19T01:51:20;10.00;99.90
31113;DHT22;17763;48.730;9.136;2023-05-19T01:53:52;10.00;99.90
31113;DHT22;17763;48.730;9.136;2023-05-19T01:56:26;10.00;99.90
31113;DHT22;17763;48.730;9.136;2023-05-19T01:59:01;10.00;99.90
31113;DHT22;17763;48.730;9.136;2023-05-19T02:01:36;9.90;99.90
31113;DHT22;17763;48.730;9.136;2023-05-19T02:04:42;9.90;99.90
31113;DHT22;17763;48.730;9.136;2023-05-19T02:07:47;9.90;99.90
31113;DHT22;17763;48.730;9.136;2023-05-19T02:10:26;10.00;99.90
31113;DHT22;17763;48.730;9.136;2023-05-19T02:12:57;9.90;99.90
31113;DHT22;17763;48.730;9.136;2023-05-19T02:15:27;9.90;99.90
31113;DHT22;17763;48.730;9.136;2023-05-19T02:17:56;9.90;99.90
31113;DHT22;17763;48.730;9.136;2023-05-19T02:20:24;9.90;99.90
31113;DHT22;17763;48.730;9.136;2023-05-19T02:22:50;9.90;99.90
31113;DHT22;17763;48.730;9.136;2023-05-19T02:25:16;9.90;99.90
31113;DHT22;17763;48.730;9.136;2023-05-19T02:27:42;9.90;99.90
31113;DHT22;17763;48.730;9.136;2023-05-19T02:30:08;9.90;99.90
31113;DHT22;17763;48.730;9.136;2023-05-19T02:32:34;9.90;99.90
31113;DHT22;17763;48.730;9.136;2023-05-19T02:35:01;9.90;99.90
31113;DHT22;17763;48.730;9.136;2023-05-19T02:37:27;9.90;99.90
31113;DHT22;17763;48.730;9.136;2023-05-19T02:39:53;10.00;99.90
31113;DHT22;17763;48.730;9.136;2023-05-19T02:42:19;9.90;99.90
31113;DHT22;17763;48.730;9.136;2023-05-19T02:44:45;9.90;99.90
31113;DHT22;17763;48.730;9.136;2023-05-19T02:47:12;9.90;99.90
31113;DHT22;17763;48.730;9.136;2023-05-19T02:49:40;9.90;99.90
31113;DHT22;17763;48.730;9.136;2023-05-19T02:52:07;10.00;99.90
31113;DHT22;17763;48.730;9.136;2023-05-19T02:54:33;10.00;99.90
31113;DHT22;17763;48.730;9.136;2023-05-19T02:56:59;9.90;99.90
31113;DHT22;17763;48.730;9.136;2023-05-19T02:59:27;9.90;99.90
31113;DHT22;17763;48.730;9.136;2023-05-19T03:01:59;9.80;99.90
31113;DHT22;17763;48.730;9.136;2023-05-19T03:04:28;9.80;99.90
31113;DHT22;17763;48.730;9.136;2023-05-19T03:06:56;9.80;99.90
31113;DHT22;17763;48.730;9.136;2023-05-19T03:09:22;9.80;99.90
31113;DHT22;17763;48.730;9.136;2023-05-19T03:11:48;9.80;99.90
31113;DHT22;17763;48.730;9.136;2023-05-19T03:14:13;9.80;99.90
31113;DHT22;17763;48.730;9.136;2023-05-19T03:16:40;9.70;99.90
31113;DHT22;17763;48.730;9.136;2023-05-19T03:19:07;9.70;99.90
31113;DHT22;17763;48.730;9.136;2023-05-19T03:21:33;9.70;99.90
31113;DHT22;17763;48.730;9.136;2023-05-19T03:23:59;9.70;99.90
31113;DHT22;17763;48.730;9.136;2023-05-19T03:26:25;9.70;99.90
31113;DHT22;17763;48.730;9.136;2023-05-19T03:28:51;9.70;99.90
31113;DHT22;17763;48.730;9.136;2023-05-19T03:31:17;9.60;99.90
31113;DHT22;17763;48.730;9.136;2023-05-19T03:33:43;9.70;99.90
31113;DHT22;17763;48.730;9.136;2023-05-19T03:36:08;9.70;99.90
31113;DHT22;17763;48.730;9.136;2023-05-19T03:38:34;9.60;99.90
31113;DHT22;17763;48.730;9.136;2023-05-19T03:41:03;9.60;99.90
31113;DHT22;17763;48.730;9.136;2023-05-19T03:43:28;9.60;99.90
31113;DHT22;17763;48.730;9.136;2023-05-19T03:45:55;9.50;99.90
31113;DHT22;17763;48.730;9.136;2023-05-19T03:48:22;9.50;99.90
31113;DHT22;17763;48.730;9.136;2023-05-19T03:50:48;9.50;99.90
31113;DHT22;17763;48.730;9.136;2023-05-19T03:53:14;9.50;99.90
31113;DHT22;17763;48.730;9.136;2023-05-19T03:55:40;9.40;99.90
31113;DHT22;17763;48.730;9.136;2023-05-19T03:58:06;9.40;99.90
31113;DHT22;17763;48.730;9.136;2023-05-19T04:00:32;9.40;99.90
31113;DHT22;17763;48.730;9.136;2023-05-19T04:02:57;9.40;99.90
31113;DHT22;17763;48.730;9.136;2023-05-19T04:05:24;9.30;99.90
31113;DHT22;17763;48.730;9.136;2023-05-19T04:07:50;9.30;99.90
31113;DHT22;17763;48.730;9.136;2023-05-19T04:10:18;9.30;99.90
31113;DHT22;17763;48.730;9.136;2023-05-19T04:12:44;9.30;99.90
31113;DHT22;17763;48.730;9.136;2023-05-19T04:15:12;9.30;99.90
31113;DHT22;17763;48.730;9.136;2023-05-19T04:17:38;9.30;99.90
31113;DHT22;17763;48.730;9.136;2023-05-19T04:20:04;9.30;99.90
31113;DHT22;17763;48.730;9.136;2023-05-19T04:22:31;9.20;99.90
31113;DHT22;17763;48.730;9.136;2023-05-19T04:24:57;9.20;99.90
31113;DHT22;17763;48.730;9.136;2023-05-19T04:27:23;9.20;99.90
31113;DHT22;17763;48.730;9.136;2023-05-19T04:29:48;9.40;99.90
31113;DHT22;17763;48.730;9.136;2023-05-19T04:32:15;9.20;99.90
31113;DHT22;17763;48.730;9.136;2023-05-19T04:34:42;9.20;99.90
31113;DHT22;17763;48.730;9.136;2023-05-19T04:37:13;9.20;99.90
31113;DHT22;17763;48.730;9.136;2023-05-19T04:39:43;9.30;99.90
31113;DHT22;17763;48.730;9.136;2023-05-19T04:42:11;9.30;99.90
31113;DHT22;17763;48.730;9.136;2023-05-19T04:44:37;9.30;99.90
31113;DHT22;17763;48.730;9.136;2023-05-19T04:47:06;9.30;99.90
31113;DHT22;17763;48.730;9.136;2023-05-19T04:49:33;9.20;99.90
31113;DHT22;17763;48.730;9.136;2023-05-19T04:52:05;9.30;99.90
31113;DHT22;17763;48.730;9.136;2023-05-19T04:54:33;9.30;99.90
31113;DHT22;17763;48.730;9.136;2023-05-19T04:56:59;9.30;99.90
31113;DHT22;17763;48.730;9.136;2023-05-19T04:59:24;9.30;99.90
31113;DHT22;17763;48.730;9.136;2023-05-19T05:01:53;9.30;99.90
31113;DHT22;17763;48.730;9.136;2023-05-19T05:04:19;9.20;99.90
31113;DHT22;17763;48.730;9.136;2023-05-19T05:06:46;9.20;99.90
31113;DHT22;17763;48.730;9.136;2023-05-19T05:09:17;9.30;99.90
31113;DHT22;17763;48.730;9.136;2023-05-19T05:11:45;9.30;99.90
31113;DHT22;17763;48.730;9.136;2023-05-19T05:14:14;9.30;99.90
31113;DHT22;17763;48.730;9.136;2023-05-19T05:16:41;9.30;99.90
31113;DHT22;17763;48.730;9.136;2023-05-19T05:19:07;9.20;99.90
31113;DHT22;17763;48.730;9.136;2023-05-19T05:21:33;9.30;99.90
31113;DHT22;17763;48.730;9.136;2023-05-19T05:23:59;9.30;99.90
31113;DHT22;17763;48.730;9.136;2023-05-19T05:26:29;9.40;99.90
31113;DHT22;17763;48.730;9.136;2023-05-19T05:28:57;9.40;99.90
31113;DHT22;17763;48.730;9.136;2023-05-19T05:31:23;9.50;99.90
31113;DHT22;17763;48.730;9.136;2023-05-19T05:33:48;9.50;99.90
31113;DHT22;17763;48.730;9.136;2023-05-19T05:36:14;9.60;99.90
31113;DHT22;17763;48.730;9.136;2023-05-19T05:38:40;9.60;99.90
31113;DHT22;17763;48.730;9.136;2023-05-19T05:41:06;9.50;99.90
31113;DHT22;17763;48.730;9.136;2023-05-19T05:43:32;9.50;99.90
31113;DHT22;17763;48.730;9.136;2023-05-19T05:45:58;9.60;99.90
31113;DHT22;17763;48.730;9.136;2023-05-19T05:48:24;9.60;99.90
31113;DHT22;17763;48.730;9.136;2023-05-19T05:50:50;9.70;99.90
31113;DHT22;17763;48.730;9.136;2023-05-19T05:53:20;9.80;99.90
31113;DHT22;17763;48.730;9.136;2023-05-19T05:55:46;9.80;99.90
31113;DHT22;17763;48.730;9.136;2023-05-19T05:58:12;9.70;99.90
31113;DHT22;17763;48.730;9.136;2023-05-19T06:00:40;9.80;99.90
31113;DHT22;17763;48.730;9.136;2023-05-19T06:03:12;9.80;99.90
31113;DHT22;17763;48.730;9.136;2023-05-19T06:05:39;10.00;99.90
31113;DHT22;17763;48.730;9.136;2023-05-19T06:08:05;10.00;99.90
31113;DHT22;17763;48.730;9.136;2023-05-19T06:10:31;10.10;99.90
31113;DHT22;17763;48.730;9.136;2023-05-19T06:12:57;10.20;99.90
31113;DHT22;17763;48.730;9.136;2023-05-19T06:15:27;10.20;99.90
31113;DHT22;17763;48.730;9.136;2023-05-19T06:17:53;10.30;99.90
31113;DHT22;17763;48.730;9.136;2023-05-19T06:20:19;10.40;99.90
31113;DHT22;17763;48.730;9.136;2023-05-19T06:22:44;10.50;99.90
31113;DHT22;17763;48.730;9.136;2023-05-19T06:25:10;10.80;99.90
31113;DHT22;17763;48.730;9.136;2023-05-19T06:27:36;10.80;99.90
31113;DHT22;17763;48.730;9.136;2023-05-19T06:30:02;10.90;99.90
31113;DHT22;17763;48.730;9.136;2023-05-19T06:32:28;10.90;99.90
31113;DHT22;17763;48.730;9.136;2023-05-19T06:34:54;11.00;99.90
31113;DHT22;17763;48.730;9.136;2023-05-19T06:37:21;11.00;99.90
31113;DHT22;17763;48.730;9.136;2023-05-19T06:39:48;10.90;99.90
31113;DHT22;17763;48.730;9.136;2023-05-19T06:42:19;10.80;99.90
31113;DHT22;17763;48.730;9.136;2023-05-19T06:44:50;10.90;99.90
31113;DHT22;17763;48.730;9.136;2023-05-19T06:47:17;11.00;99.90
31113;DHT22;17763;48.730;9.136;2023-05-19T06:49:46;10.90;99.90
31113;DHT22;17763;48.730;9.136;2023-05-19T06:52:16;10.80;99.90
31113;DHT22;17763;48.730;9.136;2023-05-19T06:54:42;10.90;99.90
31113;DHT22;17763;48.730;9.136;2023-05-19T06:57:07;11.00;99.90
31113;DHT22;17763;48.730;9.136;2023-05-19T06:59:35;11.00;99.90
31113;DHT22;17763;48.730;9.136;2023-05-19T07:02:07;11.10;99.90
31113;DHT22;17763;48.730;9.136;2023-05-19T07:04:32;11.30;99.90
31113;DHT22;17763;48.730;9.136;2023-05-19T07:06:58;11.30;99.90
31113;DHT22;17763;48.730;9.136;2023-05-19T07:09:24;11.20;99.90
31113;DHT22;17763;48.730;9.136;2023-05-19T07:11:50;11.30;99.90
31113;DHT22;17763;48.730;9.136;2023-05-19T07:14:15;11.20;99.90
31113;DHT22;17763;48.730;9.136;2023-05-19T07:16:42;11.30;99.90
31113;DHT22;17763;48.730;9.136;2023-05-19T07:19:08;11.30;99.90
31113;DHT22;17763;48.730;9.136;2023-05-19T07:21:34;11.50;99.90
31113;DHT22;17763;48.730;9.136;2023-05-19T07:24:00;11.60;99.90
31113;DHT22;17763;48.730;9.136;2023-05-19T07:26:25;11.80;99.90
31113;DHT22;17763;48.730;9.136;2023-05-19T07:28:54;11.70;99.90
31113;DHT22;17763;48.730;9.136;2023-05-19T07:31:20;11.80;99.90
31113;DHT22;17763;48.730;9.136;2023-05-19T07:33:46;11.90;99.90
31113;DHT22;17763;48.730;9.136;2023-05-19T07:36:11;12.10;99.90
31113;DHT22;17763;48.730;9.136;2023-05-19T07:38:37;12.20;99.90
31113;DHT22;17763;48.730;9.136;2023-05-19T07:41:03;12.40;99.90
31113;DHT22;17763;48.730;9.136;2023-05-19T07:43:29;12.40;99.90
31113;DHT22;17763;48.730;9.136;2023-05-19T07:45:54;12.50;99.90
31113;DHT22;17763;48.730;9.136;2023-05-19T07:48:21;12.50;99.90
31113;DHT22;17763;48.730;9.136;2023-05-19T07:50:49;12.50;99.90
31113;DHT22;17763;48.730;9.136;2023-05-19T07:53:15;12.40;99.90
31113;DHT22;17763;48.730;9.136;2023-05-19T07:55:41;12.60;99.90
31113;DHT22;17763;48.730;9.136;2023-05-19T07:58:07;12.80;99.90
31113;DHT22;17763;48.730;9.136;2023-05-19T08:00:32;12.90;99.90
31113;DHT22;17763;48.730;9.136;2023-05-19T08:02:58;13.00;99.90
31113;DHT22;17763;48.730;9.136;2023-05-19T08:05:24;13.20;99.90
31113;DHT22;17763;48.730;9.136;2023-05-19T08:07:50;13.10;99.90
31113;DHT22;17763;48.730;9.136;2023-05-19T08:10:16;13.00;99.90
31113;DHT22;17763;48.730;9.136;2023-05-19T08:12:42;13.10;99.90
31113;DHT22;17763;48.730;9.136;2023-05-19T08:15:09;13.20;99.90
31113;DHT22;17763;48.730;9.136;2023-05-19T08:17:37;13.20;99.90
31113;DHT22;17763;48.730;9.136;2023-05-19T08:20:04;13.00;99.90
31113;DHT22;17763;48.730;9.136;2023-05-19T08:22:32;12.90;99.90
31113;DHT22;17763;48.730;9.136;2023-05-19T08:24:58;12.90;99.90
31113;DHT22;17763;48.730;9.136;2023-05-19T08:27:24;13.00;99.90
31113;DHT22;17763;48.730;9.136;2023-05-19T08:29:49;12.70;99.90
31113;DHT22;17763;48.730;9.136;2023-05-19T08:32:15;12.90;99.90
31113;DHT22;17763;48.730;9.136;2023-05-19T08:34:41;12.90;99.90
31113;DHT22;17763;48.730;9.136;2023-05-19T08:37:07;12.90;99.90
31113;DHT22;17763;48.730;9.136;2023-05-19T08:39:33;13.00;99.90
31113;DHT22;17763;48.730;9.136;2023-05-19T08:42:00;12.90;99.90
31113;DHT22;17763;48.730;9.136;2023-05-19T08:44:27;13.00;99.90
31113;DHT22;17763;48.730;9.136;2023-05-19T08:46:59;13.10;99.90
31113;DHT22;17763;48.730;9.136;2023-05-19T08:49:27;13.10;99.60
31113;DHT22;17763;48.730;9.136;2023-05-19T08:52:13;12.90;99.40
31113;DHT22;17763;48.730;9.136;2023-05-19T08:58:03;13.20;99.90
31113;DHT22;17763;48.730;9.136;2023-05-19T09:00:31;13.10;98.90
31113;DHT22;17763;48.730;9.136;2023-05-19T09:03:00;13.10;98.50
31113;DHT22;17763;48.730;9.136;2023-05-19T09:05:27;13.10;98.80
31113;DHT22;17763;48.730;9.136;2023-05-19T09:07:55;13.10;99.20
31113;DHT22;17763;48.730;9.136;2023-05-19T09:10:21;13.30;98.80
31113;DHT22;17763;48.730;9.136;2023-05-19T09:12:47;13.30;97.80
31113;DHT22;17763;48.730;9.136;2023-05-19T09:15:17;13.40;98.60
31113;DHT22;17763;48.730;9.136;2023-05-19T09:17:46;13.60;97.90
31113;DHT22;17763;48.730;9.136;2023-05-19T09:20:15;13.70;97.70
31113;DHT22;17763;48.730;9.136;2023-05-19T09:22:45;13.70;97.10
31113;DHT22;17763;48.730;9.136;2023-05-19T09:25:22;13.90;96.80
31113;DHT22;17763;48.730;9.136;2023-05-19T09:27:48;13.60;97.40
31113;DHT22;17763;48.730;9.136;2023-05-19T09:30:18;13.30;96.70
31113;DHT22;17763;48.730;9.136;2023-05-19T09:32:44;13.00;97.90
31113;DHT22;17763;48.730;9.136;2023-05-19T09:35:13;12.70;97.80
31113;DHT22;17763;48.730;9.136;2023-05-19T09:37:44;12.60;98.50
31113;DHT22;17763;48.730;9.136;2023-05-19T09:40:13;12.50;98.80
31113;DHT22;17763;48.730;9.136;2023-05-19T09:42:40;12.70;99.00
31113;DHT22;17763;48.730;9.136;2023-05-19T09:45:08;12.90;99.20
31113;DHT22;17763;48.730;9.136;2023-05-19T09:47:35;13.00;98.70
31113;DHT22;17763;48.730;9.136;2023-05-19T09:50:04;13.10;99.10
31113;DHT22;17763;48.730;9.136;2023-05-19T09:52:29;13.20;99.20
31113;DHT22;17763;48.730;9.136;2023-05-19T09:54:58;13.10;98.30
31113;DHT22;17763;48.730;9.136;2023-05-19T09:57:25;13.20;99.10
31113;DHT22;17763;48.730;9.136;2023-05-19T09:59:54;13.40;98.80
31113;DHT22;17763;48.730;9.136;2023-05-19T10:02:22;13.30;97.60
31113;DHT22;17763;48.730;9.136;2023-05-19T10:04:51;13.20;98.20
31113;DHT22;17763;48.730;9.136;2023-05-19T10:07:18;13.10;97.60
31113;DHT22;17763;48.730;9.136;2023-05-19T10:09:46;13.20;98.10
31113;DHT22;17763;48.730;9.136;2023-05-19T10:12:15;13.40;98.10
31113;DHT22;17763;48.730;9.136;2023-05-19T10:14:41;13.60;98.10
31113;DHT22;17763;48.730;9.136;2023-05-19T10:17:07;13.40;96.40
31113;DHT22;17763;48.730;9.136;2023-05-19T10:19:35;13.30;96.70
31113;DHT22;17763;48.730;9.136;2023-05-19T10:22:04;13.30;97.50
31113;DHT22;17763;48.730;9.136;2023-05-19T10:24:33;13.50;97.40
31113;DHT22;17763;48.730;9.136;2023-05-19T10:27:05;13.60;96.90
31113;DHT22;17763;48.730;9.136;2023-05-19T10:29:35;13.50;96.70
31113;DHT22;17763;48.730;9.136;2023-05-19T10:32:07;13.50;96.50
31113;DHT22;17763;48.730;9.136;2023-05-19T10:40:27;13.50;96.10
31113;DHT22;17763;48.730;9.136;2023-05-19T10:43:12;13.50;96.40
31113;DHT22;17763;48.730;9.136;2023-05-19T10:45:52;13.50;96.30
31113;DHT22;17763;48.730;9.136;2023-05-19T10:48:21;13.50;95.70
31113;DHT22;17763;48.730;9.136;2023-05-19T10:50:52;13.40;96.00
31113;DHT22;17763;48.730;9.136;2023-05-19T10:53:18;13.40;96.70
31113;DHT22;17763;48.730;9.136;2023-05-19T11:01:08;13.60;95.30
31113;DHT22;17763;48.730;9.136;2023-05-19T11:06:28;13.70;95.10
31113;DHT22;17763;48.730;9.136;2023-05-19T11:14:10;14.00;95.20
31113;DHT22;17763;48.730;9.136;2023-05-19T11:16:39;14.10;94.90
31113;DHT22;17763;48.730;9.136;2023-05-19T11:19:24;14.10;94.70
31113;DHT22;17763;48.730;9.136;2023-05-19T11:21:53;14.20;94.50
31113;DHT22;17763;48.730;9.136;2023-05-19T11:24:45;14.00;94.30
31113;DHT22;17763;48.730;9.136;2023-05-19T11:30:16;13.60;94.80
31113;DHT22;17763;48.730;9.136;2023-05-19T11:32:49;13.70;95.70
31113;DHT22;17763;48.730;9.136;2023-05-19T11:35:15;13.70;95.80
31113;DHT22;17763;48.730;9.136;2023-05-19T11:37:44;13.70;95.60
31113;DHT22;17763;48.730;9.136;2023-05-19T11:40:12;13.80;95.50
31113;DHT22;17763;48.730;9.136;2023-05-19T11:42:40;13.60;94.90
31113;DHT22;17763;48.730;9.136;2023-05-19T11:45:06;13.40;95.20
31113;DHT22;17763;48.730;9.136;2023-05-19T11:47:32;13.20;95.90
31113;DHT22;17763;48.730;9.136;2023-05-19T11:50:01;13.30;96.70
31113;DHT22;17763;48.730;9.136;2023-05-19T11:52:26;13.30;97.00
31113;DHT22;17763;48.730;9.136;2023-05-19T11:54:52;13.30;97.00
31113;DHT22;17763;48.730;9.136;2023-05-19T11:57:18;13.40;97.40
31113;DHT22;17763;48.730;9.136;2023-05-19T11:59:44;13.30;96.40
31113;DHT22;17763;48.730;9.136;2023-05-19T12:02:16;13.50;97.10
31113;DHT22;17763;48.730;9.136;2023-05-19T12:04:43;13.50;96.50
31113;DHT22;17763;48.730;9.136;2023-05-19T12:07:12;13.70;96.40
31113;DHT22;17763;48.730;9.136;2023-05-19T12:09:47;13.60;96.20
31113;DHT22;17763;48.730;9.136;2023-05-19T12:12:15;13.80;96.60
31113;DHT22;17763;48.730;9.136;2023-05-19T12:14:41;13.80;95.70
31113;DHT22;17763;48.730;9.136;2023-05-19T12:17:12;13.70;95.40
31113;DHT22;17763;48.730;9.136;2023-05-19T12:19:39;13.30;95.80
31113;DHT22;17763;48.730;9.136;2023-05-19T12:22:06;13.30;95.70
31113;DHT22;17763;48.730;9.136;2023-05-19T12:24:36;13.10;96.40
31113;DHT22;17763;48.730;9.136;2023-05-19T12:27:09;13.20;96.70
31113;DHT22;17763;48.730;9.136;2023-05-19T12:29:38;13.40;96.90
31113;DHT22;17763;48.730;9.136;2023-05-19T12:32:06;13.40;96.70
31113;DHT22;17763;48.730;9.136;2023-05-19T12:34:37;13.50;97.10
31113;DHT22;17763;48.730;9.136;2023-05-19T12:37:04;13.60;96.90
31113;DHT22;17763;48.730;9.136;2023-05-19T12:39:32;13.70;95.90
31113;DHT22;17763;48.730;9.136;2023-05-19T12:42:03;13.50;95.70
31113;DHT22;17763;48.730;9.136;2023-05-19T12:44:29;13.50;95.80
31113;DHT22;17763;48.730;9.136;2023-05-19T12:46:56;13.60;96.00
31113;DHT22;17763;48.730;9.136;2023-05-19T12:49:23;13.60;96.20
31113;DHT22;17763;48.730;9.136;2023-05-19T12:51:52;13.60;95.50
31113;DHT22;17763;48.730;9.136;2023-05-19T12:54:22;13.50;96.10
31113;DHT22;17763;48.730;9.136;2023-05-19T12:56:51;13.60;96.20
31113;DHT22;17763;48.730;9.136;2023-05-19T12:59:26;13.70;96.50
31113;DHT22;17763;48.730;9.136;2023-05-19T13:01:58;13.80;96.40
31113;DHT22;17763;48.730;9.136;2023-05-19T13:04:24;14.10;96.00
31113;DHT22;17763;48.730;9.136;2023-05-19T13:06:52;14.10;94.90
31113;DHT22;17763;48.730;9.136;2023-05-19T13:09:18;14.10;94.80
31113;DHT22;17763;48.730;9.136;2023-05-19T13:11:45;14.00;94.20
31113;DHT22;17763;48.730;9.136;2023-05-19T13:14:16;14.10;94.60
31113;DHT22;17763;48.730;9.136;2023-05-19T13:16:43;14.00;94.60
31113;DHT22;17763;48.730;9.136;2023-05-19T13:19:14;13.90;94.60
31113;DHT22;17763;48.730;9.136;2023-05-19T13:21:40;13.80;94.50
31113;DHT22;17763;48.730;9.136;2023-05-19T13:24:08;13.80;94.40
31113;DHT22;17763;48.730;9.136;2023-05-19T13:26:34;13.80;94.90
31113;DHT22;17763;48.730;9.136;2023-05-19T13:29:00;13.80;94.70
31113;DHT22;17763;48.730;9.136;2023-05-19T13:31:26;14.00;94.90
31113;DHT22;17763;48.730;9.136;2023-05-19T13:33:55;14.20;95.10
31113;DHT22;17763;48.730;9.136;2023-05-19T13:36:21;14.40;93.60
31113;DHT22;17763;48.730;9.136;2023-05-19T13:38:46;14.60;93.70
31113;DHT22;17763;48.730;9.136;2023-05-19T13:41:12;14.70;93.50
31113;DHT22;17763;48.730;9.136;2023-05-19T13:43:38;14.70;93.50
31113;DHT22;17763;48.730;9.136;2023-05-19T13:46:04;14.70;93.60
31113;DHT22;17763;48.730;9.136;2023-05-19T13:48:30;14.60;93.20
31113;DHT22;17763;48.730;9.136;2023-05-19T13:50:55;14.50;93.60
31113;DHT22;17763;48.730;9.136;2023-05-19T13:53:21;14.30;93.30
31113;DHT22;17763;48.730;9.136;2023-05-19T13:55:47;14.00;94.00
31113;DHT22;17763;48.730;9.136;2023-05-19T13:58:12;13.90;94.20
31113;DHT22;17763;48.730;9.136;2023-05-19T14:00:41;13.70;95.20
31113;DHT22;17763;48.730;9.136;2023-05-19T14:03:06;13.60;95.90
31113;DHT22;17763;48.730;9.136;2023-05-19T14:05:32;13.50;95.80
31113;DHT22;17763;48.730;9.136;2023-05-19T14:07:58;13.50;96.30
31113;DHT22;17763;48.730;9.136;2023-05-19T14:10:25;13.50;95.80
31113;DHT22;17763;48.730;9.136;2023-05-19T14:12:51;13.40;95.80
31113;DHT22;17763;48.730;9.136;2023-05-19T14:15:19;13.50;96.30
31113;DHT22;17763;48.730;9.136;2023-05-19T14:17:44;13.60;96.40
31113;DHT22;17763;48.730;9.136;2023-05-19T14:20:10;13.80;96.10
31113;DHT22;17763;48.730;9.136;2023-05-19T14:22:36;13.80;95.80
31113;DHT22;17763;48.730;9.136;2023-05-19T14:25:02;13.90;96.30
31113;DHT22;17763;48.730;9.136;2023-05-19T14:27:28;14.10;95.10
31113;DHT22;17763;48.730;9.136;2023-05-19T14:29:53;14.10;94.70
31113;DHT22;17763;48.730;9.136;2023-05-19T14:32:19;14.30;95.00
31113;DHT22;17763;48.730;9.136;2023-05-19T14:34:45;14.30;94.80
31113;DHT22;17763;48.730;9.136;2023-05-19T14:37:11;14.40;94.50
31113;DHT22;17763;48.730;9.136;2023-05-19T14:39:36;14.50;95.00
31113;DHT22;17763;48.730;9.136;2023-05-19T14:42:02;14.30;93.20
31113;DHT22;17763;48.730;9.136;2023-05-19T14:44:31;14.20;93.40
31113;DHT22;17763;48.730;9.136;2023-05-19T14:46:58;14.00;93.90
31113;DHT22;17763;48.730;9.136;2023-05-19T14:49:25;14.00;93.40
31113;DHT22;17763;48.730;9.136;2023-05-19T14:51:50;14.00;94.20
31113;DHT22;17763;48.730;9.136;2023-05-19T14:54:16;14.10;94.90
31113;DHT22;17763;48.730;9.136;2023-05-19T14:56:42;14.20;94.40
31113;DHT22;17763;48.730;9.136;2023-05-19T14:59:10;14.20;94.20
31113;DHT22;17763;48.730;9.136;2023-05-19T15:01:35;14.30;95.00
31113;DHT22;17763;48.730;9.136;2023-05-19T15:04:01;14.30;94.70
31113;DHT22;17763;48.730;9.136;2023-05-19T15:06:27;14.20;93.80
31113;DHT22;17763;48.730;9.136;2023-05-19T15:08:53;14.10;94.20
31113;DHT22;17763;48.730;9.136;2023-05-19T15:11:19;14.20;94.20
31113;DHT22;17763;48.730;9.136;2023-05-19T15:13:45;14.20;94.20
31113;DHT22;17763;48.730;9.136;2023-05-19T15:16:13;14.20;94.40
31113;DHT22;17763;48.730;9.136;2023-05-19T15:18:39;14.20;94.00
31113;DHT22;17763;48.730;9.136;2023-05-19T15:21:04;14.20;94.80
31113;DHT22;17763;48.730;9.136;2023-05-19T15:23:30;14.10;94.80
31113;DHT22;17763;48.730;9.136;2023-05-19T15:25:56;14.00;94.00
31113;DHT22;17763;48.730;9.136;2023-05-19T15:28:21;14.00;94.80
31113;DHT22;17763;48.730;9.136;2023-05-19T15:30:47;13.90;94.80
31113;DHT22;17763;48.730;9.136;2023-05-19T15:33:13;14.00;94.80
31113;DHT22;17763;48.730;9.136;2023-05-19T15:35:39;13.90;95.00
31113;DHT22;17763;48.730;9.136;2023-05-19T15:38:05;13.80;94.80
31113;DHT22;17763;48.730;9.136;2023-05-19T15:40:31;13.80;95.10
31113;DHT22;17763;48.730;9.136;2023-05-19T15:42:57;13.80;95.50
31113;DHT22;17763;48.730;9.136;2023-05-19T15:45:23;13.80;95.60
31113;DHT22;17763;48.730;9.136;2023-05-19T15:47:49;13.80;95.60
31113;DHT22;17763;48.730;9.136;2023-05-19T15:50:15;13.80;95.80
31113;DHT22;17763;48.730;9.136;2023-05-19T15:52:40;13.80;95.40
31113;DHT22;17763;48.730;9.136;2023-05-19T15:55:06;13.90;95.30
31113;DHT22;17763;48.730;9.136;2023-05-19T15:57:32;14.00;96.00
31113;DHT22;17763;48.730;9.136;2023-05-19T15:59:59;14.10;96.40
31113;DHT22;17763;48.730;9.136;2023-05-19T16:02:24;14.20;95.70
31113;DHT22;17763;48.730;9.136;2023-05-19T16:04:50;14.20;95.20
31113;DHT22;17763;48.730;9.136;2023-05-19T16:07:16;14.30;95.10
31113;DHT22;17763;48.730;9.136;2023-05-19T16:09:45;14.30;94.90